createdAt,value
2018-12-10T00:01:21.537Z,2.77
2018-12-10T00:03:52.450Z,3.53
2018-12-10T00:06:21.971Z,2.20
2018-12-10T00:08:51.931Z,2.53
2018-12-10T00:11:22.519Z,2.20
2018-12-10T00:13:56.346Z,3.20
2018-12-10T00:16:25.806Z,2.73
2018-12-10T00:18:55.698Z,3.53
2018-12-10T00:21:26.142Z,3.17
2018-12-10T00:23:56.189Z,2.33
2018-12-10T00:26:26.674Z,2.70
2018-12-10T00:28:56.089Z,2.27
2018-12-10T00:31:29.310Z,2.00
2018-12-10T00:34:00.611Z,1.60
2018-12-10T00:36:30.670Z,2.03
2018-12-10T00:39:00.673Z,2.37
2018-12-10T00:41:30.292Z,2.20
2018-12-10T00:43:59.586Z,2.53
2018-12-10T00:46:28.879Z,2.87
2018-12-10T00:49:02.701Z,3.03
2018-12-10T00:51:33.752Z,2.57
2018-12-10T00:54:03.208Z,2.50
2018-12-10T00:56:32.529Z,3.00
2018-12-10T00:59:02.759Z,2.40
2018-12-10T01:01:32.383Z,2.60
2018-12-10T01:04:01.892Z,3.10
2018-12-10T01:06:31.240Z,3.17
2018-12-10T01:09:00.619Z,2.50
2018-12-10T01:11:31.226Z,2.23
2018-12-10T01:14:00.540Z,2.87
2018-12-10T01:16:30.029Z,2.23
2018-12-10T01:18:59.555Z,2.10
2018-12-10T01:21:28.962Z,2.60
2018-12-10T01:24:00.026Z,2.67
2018-12-10T01:26:29.362Z,3.23
2018-12-10T01:28:58.639Z,2.93
2018-12-10T01:31:27.862Z,2.57
2018-12-10T01:33:57.869Z,2.33
2018-12-10T01:36:27.221Z,2.40
2018-12-10T01:38:56.875Z,2.70
2018-12-10T01:41:26.407Z,2.70
2018-12-10T01:43:55.642Z,1.87
2018-12-10T01:46:25.272Z,1.53
2018-12-10T01:48:54.691Z,2.00
2018-12-10T01:51:24.626Z,2.57
2018-12-10T01:53:54.031Z,2.20
2018-12-10T01:56:23.811Z,2.50
2018-12-10T01:58:53.226Z,1.73
2018-12-10T02:01:22.832Z,1.70
2018-12-10T02:03:52.232Z,1.73
2018-12-10T02:06:21.495Z,2.20
2018-12-10T02:08:50.949Z,2.47
2018-12-10T02:11:20.154Z,2.00
2018-12-10T02:13:49.633Z,2.37
2018-12-10T02:16:19.064Z,1.87
2018-12-10T02:18:49.302Z,2.50
2018-12-10T02:21:41.348Z,1.70
2018-12-10T02:24:11.148Z,1.83
2018-12-10T02:26:40.613Z,2.20
2018-12-10T02:29:14.109Z,2.07
2018-12-10T02:31:44.126Z,2.10
2018-12-10T02:34:13.530Z,1.80
2018-12-10T02:36:42.867Z,1.70
2018-12-10T02:39:12.224Z,1.83
2018-12-10T02:41:41.717Z,1.97
2018-12-10T02:44:11.849Z,1.73
2018-12-10T02:46:41.180Z,2.00
2018-12-10T02:49:10.762Z,2.23
2018-12-10T02:51:40.130Z,2.63
2018-12-10T02:54:09.653Z,2.00
2018-12-10T02:56:38.909Z,1.87
2018-12-10T02:59:09.253Z,2.30
2018-12-10T03:01:38.689Z,1.97
2018-12-10T03:04:14.962Z,2.40
2018-12-10T03:06:44.343Z,2.03
2018-12-10T03:09:13.897Z,2.03
2018-12-10T03:11:43.408Z,2.23
2018-12-10T03:14:13.923Z,1.97
2018-12-10T03:16:43.336Z,2.33
2018-12-10T03:19:13.149Z,1.77
2018-12-10T03:21:42.511Z,2.03
2018-12-10T03:24:12.277Z,2.40
2018-12-10T03:26:41.690Z,2.13
2018-12-10T03:29:11.569Z,2.27
2018-12-10T03:31:41.437Z,2.20
2018-12-10T03:34:12.346Z,1.90
2018-12-10T03:36:42.847Z,1.63
2018-12-10T03:39:14.396Z,2.33
2018-12-10T03:41:49.759Z,2.60
2018-12-10T03:44:21.371Z,1.87
2018-12-10T03:46:53.125Z,1.97
2018-12-10T03:49:25.416Z,1.80
2018-12-10T03:51:58.754Z,3.07
2018-12-10T03:54:31.455Z,2.53
2018-12-10T03:57:04.602Z,1.60
2018-12-10T03:59:40.582Z,2.23
2018-12-10T04:02:32.403Z,2.00
2018-12-10T04:05:07.202Z,2.10
2018-12-10T04:07:38.054Z,1.73
2018-12-10T04:10:08.470Z,1.67
2018-12-10T04:12:37.837Z,2.07
2018-12-10T04:15:07.237Z,1.87
2018-12-10T04:17:36.528Z,2.20
2018-12-10T04:20:06.245Z,2.27
2018-12-10T04:22:35.434Z,4.60
2018-12-10T04:25:05.128Z,2.07
2018-12-10T04:27:35.658Z,1.93
2018-12-10T04:30:05.472Z,1.90
2018-12-10T04:32:35.780Z,1.33
2018-12-10T04:35:05.445Z,1.30
2018-12-10T04:37:35.288Z,1.30
2018-12-10T04:40:04.880Z,1.30
2018-12-10T04:42:35.282Z,1.40
2018-12-10T04:45:04.682Z,1.63
2018-12-10T04:47:35.499Z,1.50
2018-12-10T04:50:05.332Z,1.20
2018-12-10T04:52:35.645Z,1.20
2018-12-10T04:55:05.247Z,1.40
2018-12-10T04:57:35.309Z,1.73
2018-12-10T05:00:05.927Z,1.53
2018-12-10T05:02:36.178Z,0.97
2018-12-10T05:05:07.574Z,1.63
2018-12-10T05:07:36.813Z,1.97
2018-12-10T05:10:06.375Z,1.47
2018-12-10T05:12:36.703Z,1.40
2018-12-10T05:15:06.655Z,1.63
2018-12-10T05:17:35.954Z,1.13
2018-12-10T05:20:05.562Z,1.77
2018-12-10T05:22:35.573Z,1.90
2018-12-10T05:25:05.495Z,1.80
2018-12-10T05:27:35.607Z,2.07
2018-12-10T05:30:05.120Z,1.87
2018-12-10T05:32:35.237Z,1.63
2018-12-10T05:35:04.665Z,2.43
2018-12-10T05:37:34.276Z,2.20
2018-12-10T05:40:04.100Z,1.47
2018-12-10T05:42:33.670Z,2.00
2018-12-10T05:45:03.296Z,2.03
2018-12-10T05:47:35.535Z,1.93
2018-12-10T05:50:05.587Z,2.27
2018-12-10T05:52:35.032Z,1.77
2018-12-10T05:55:04.888Z,2.37
2018-12-10T05:57:34.484Z,2.40
2018-12-10T06:00:04.036Z,2.53
2018-12-10T06:02:33.542Z,2.37
2018-12-10T06:05:02.811Z,2.37
2018-12-10T06:07:32.456Z,2.70
2018-12-10T06:10:01.705Z,2.70
2018-12-10T06:12:32.687Z,2.73
2018-12-10T06:15:02.040Z,2.57
2018-12-10T06:17:31.395Z,2.43
2018-12-10T06:20:02.294Z,2.73
2018-12-10T06:22:32.990Z,2.03
2018-12-10T06:25:02.423Z,2.03
2018-12-10T06:27:31.924Z,2.07
2018-12-10T06:30:04.441Z,1.80
2018-12-10T06:32:36.232Z,2.40
2018-12-10T06:35:05.779Z,2.17
2018-12-10T06:37:37.674Z,2.30
2018-12-10T06:40:08.173Z,2.63
2018-12-10T06:42:38.677Z,2.33
2018-12-10T06:45:08.311Z,2.70
2018-12-10T06:47:37.606Z,2.70
2018-12-10T06:50:07.909Z,2.53
2018-12-10T06:52:38.126Z,2.87
2018-12-10T06:55:08.406Z,2.60
2018-12-10T06:57:37.678Z,2.93
2018-12-10T07:00:08.635Z,2.57
2018-12-10T07:02:37.816Z,2.70
2018-12-10T07:05:07.415Z,2.53
2018-12-10T07:07:37.375Z,2.40
2018-12-10T07:10:08.071Z,2.37
2018-12-10T07:12:37.347Z,2.70
2018-12-10T07:15:07.836Z,3.40
2018-12-10T07:17:39.473Z,2.73
2018-12-10T07:20:14.096Z,2.43
2018-12-10T07:22:58.837Z,2.93
2018-12-10T07:25:30.663Z,2.50
2018-12-10T07:28:00.944Z,5.80
2018-12-10T07:30:31.074Z,2.60
2018-12-10T07:33:01.274Z,2.40
2018-12-10T07:35:31.830Z,2.47
2018-12-10T07:38:02.318Z,2.97
2018-12-10T07:40:32.047Z,2.43
2018-12-10T07:43:02.945Z,2.67
2018-12-10T07:45:35.515Z,2.70
2018-12-10T07:48:19.506Z,2.33
2018-12-10T07:50:55.039Z,2.40
2018-12-10T07:53:27.426Z,2.87
2018-12-10T07:55:57.296Z,2.23
2018-12-10T07:58:27.477Z,2.70
2018-12-10T08:00:56.912Z,2.60
2018-12-10T08:03:26.295Z,2.53
2018-12-10T08:05:55.668Z,2.17
2018-12-10T08:08:25.040Z,3.80
2018-12-10T08:10:54.293Z,2.40
2018-12-10T08:13:23.644Z,3.17
2018-12-10T08:15:53.114Z,2.53
2018-12-10T08:18:22.371Z,3.60
2018-12-10T08:20:52.028Z,3.10
2018-12-10T08:23:21.363Z,3.30
2018-12-10T08:25:50.834Z,2.73
2018-12-10T08:28:20.293Z,3.13
2018-12-10T08:30:49.630Z,2.30
2018-12-10T08:33:18.971Z,2.80
2018-12-10T08:35:49.376Z,2.53
2018-12-10T08:38:18.953Z,2.60
2018-12-10T08:40:48.576Z,2.33
2018-12-10T08:43:18.155Z,3.53
2018-12-10T08:45:47.592Z,3.07
2018-12-10T08:48:17.050Z,3.00
2018-12-10T08:50:48.075Z,2.90
2018-12-10T08:53:17.454Z,2.20
2018-12-10T08:55:47.048Z,2.53
2018-12-10T08:58:17.013Z,2.53
2018-12-10T09:00:47.194Z,2.60
2018-12-10T09:03:16.810Z,2.57
2018-12-10T09:05:46.087Z,2.37
2018-12-10T09:08:15.471Z,2.97
2018-12-10T09:10:45.653Z,2.27
2018-12-10T09:13:15.212Z,2.43
2018-12-10T09:15:44.430Z,2.13
2018-12-10T09:18:13.636Z,2.47
2018-12-10T09:20:43.497Z,2.27
2018-12-10T09:23:12.887Z,1.70
2018-12-10T09:25:42.325Z,2.17
2018-12-10T09:28:19.287Z,2.10
2018-12-10T09:30:42.920Z,2.37
2018-12-10T09:33:16.086Z,2.30
2018-12-10T09:35:45.347Z,2.43
2018-12-10T09:38:14.900Z,3.17
2018-12-10T09:40:44.187Z,3.20
2018-12-10T09:43:13.596Z,3.30
2018-12-10T09:45:43.303Z,3.10
2018-12-10T09:48:12.700Z,2.83
2018-12-10T09:50:42.753Z,2.67
2018-12-10T09:53:12.743Z,2.97
2018-12-10T09:55:42.230Z,2.50
2018-12-10T09:58:11.629Z,2.57
2018-12-10T10:00:41.213Z,2.67
2018-12-10T10:03:10.740Z,2.63
2018-12-10T10:05:40.144Z,2.80
2018-12-10T10:08:09.491Z,3.30
2018-12-10T10:10:38.733Z,3.00
2018-12-10T10:13:07.943Z,3.17
2018-12-10T10:15:38.286Z,3.17
2018-12-10T10:18:07.923Z,3.27
2018-12-10T10:20:37.196Z,2.63
2018-12-10T10:23:06.660Z,2.77
2018-12-10T10:25:35.994Z,2.90
2018-12-10T10:28:06.297Z,3.27
2018-12-10T10:30:35.956Z,2.40
2018-12-10T10:33:06.057Z,2.60
2018-12-10T10:35:35.869Z,3.03
2018-12-10T10:38:06.687Z,3.07
2018-12-10T10:40:36.097Z,2.80
2018-12-10T10:43:05.524Z,2.63
2018-12-10T10:45:35.258Z,3.40
2018-12-10T10:48:04.628Z,3.10
2018-12-10T10:50:34.032Z,2.83
2018-12-10T10:53:03.409Z,3.03
2018-12-10T10:55:33.223Z,2.70
2018-12-10T10:58:02.920Z,3.20
2018-12-10T11:00:38.075Z,3.30
2018-12-10T11:03:12.683Z,3.20
2018-12-10T11:05:42.235Z,3.23
2018-12-10T11:08:12.617Z,2.97
2018-12-10T11:10:42.157Z,2.77
2018-12-10T11:13:11.471Z,3.23
2018-12-10T11:15:40.958Z,2.90
2018-12-10T11:18:10.852Z,3.47
2018-12-10T11:20:40.150Z,3.80
2018-12-10T11:23:09.435Z,3.00
2018-12-10T11:25:38.849Z,3.13
2018-12-10T11:28:12.231Z,3.67
2018-12-10T11:30:41.960Z,5.03
2018-12-10T11:33:11.353Z,2.90
2018-12-10T11:35:40.870Z,3.50
2018-12-10T11:38:10.153Z,4.83
2018-12-10T11:40:40.004Z,3.57
2018-12-10T11:43:09.494Z,3.90
2018-12-10T11:45:38.883Z,4.00
2018-12-10T11:48:10.118Z,3.87
2018-12-10T11:50:40.467Z,4.27
2018-12-10T11:53:10.171Z,4.90
2018-12-10T11:55:39.475Z,5.33
2018-12-10T11:58:09.061Z,5.93
2018-12-10T12:00:38.296Z,6.67
2018-12-10T12:03:07.766Z,7.77
2018-12-10T12:05:37.047Z,8.70
2018-12-10T12:08:06.807Z,16.07
2018-12-10T12:10:36.334Z,15.77
2018-12-10T12:13:05.670Z,16.87
2018-12-10T12:15:35.316Z,15.10
2018-12-10T12:18:06.671Z,13.77
2018-12-10T12:20:37.262Z,8.57
2018-12-10T12:23:11.273Z,7.70
2018-12-10T12:25:40.683Z,7.23
2018-12-10T12:28:10.227Z,7.03
2018-12-10T12:30:40.307Z,7.87
2018-12-10T12:33:09.709Z,6.10
2018-12-10T12:35:39.145Z,4.27
2018-12-10T12:38:08.716Z,6.80
2018-12-10T12:40:38.055Z,4.90
2018-12-10T12:43:15.796Z,3.33
2018-12-10T12:45:40.227Z,3.90
2018-12-10T12:48:10.207Z,4.00
2018-12-10T12:50:39.517Z,3.50
2018-12-10T12:53:09.480Z,4.10
2018-12-10T12:55:38.865Z,3.67
2018-12-10T12:58:08.981Z,3.30
2018-12-10T13:00:41.995Z,3.07
2018-12-10T13:03:10.217Z,2.30
2018-12-10T13:05:41.008Z,2.50
2018-12-10T13:08:10.558Z,1.73
2018-12-10T13:10:40.081Z,1.93
2018-12-10T13:13:09.438Z,2.00
2018-12-10T13:15:38.902Z,1.80
2018-12-10T13:18:08.205Z,1.70
2018-12-10T13:20:38.149Z,1.90
2018-12-10T13:23:07.741Z,1.77
2018-12-10T13:25:37.407Z,1.97
2018-12-10T13:28:06.795Z,1.80
2018-12-10T13:30:39.100Z,1.73
2018-12-10T13:33:09.467Z,1.50
2018-12-10T13:35:39.237Z,2.33
2018-12-10T13:38:12.417Z,1.53
2018-12-10T13:40:40.445Z,1.60
2018-12-10T13:43:10.075Z,1.70
2018-12-10T13:45:39.558Z,1.63
2018-12-10T13:48:09.450Z,1.67
2018-12-10T13:50:38.871Z,1.67
2018-12-10T13:53:08.173Z,1.47
2018-12-10T13:55:37.887Z,1.80
2018-12-10T13:58:08.123Z,1.90
2018-12-10T14:00:37.639Z,1.93
2018-12-10T14:03:08.094Z,1.57
2018-12-10T14:05:47.459Z,1.60
2018-12-10T14:08:14.855Z,1.93
2018-12-10T14:10:44.823Z,1.63
2018-12-10T14:13:14.402Z,1.80
2018-12-10T14:15:44.072Z,1.80
2018-12-10T14:18:13.593Z,1.67
2018-12-10T14:20:43.609Z,1.53
2018-12-10T14:23:13.033Z,1.70
2018-12-10T14:25:42.581Z,1.70
2018-12-10T14:28:13.782Z,2.07
2018-12-10T14:30:43.248Z,2.43
2018-12-10T14:33:14.834Z,2.10
2018-12-10T14:35:45.565Z,1.73
2018-12-10T14:38:14.954Z,2.23
2018-12-10T14:40:45.168Z,1.83
2018-12-10T14:43:15.108Z,1.93
2018-12-10T14:45:45.327Z,1.57
2018-12-10T14:48:15.044Z,1.70
2018-12-10T14:50:45.284Z,1.73
2018-12-10T14:53:14.760Z,1.73
2018-12-10T14:55:44.390Z,1.67
2018-12-10T14:58:13.705Z,1.80
2018-12-10T15:00:43.922Z,1.57
2018-12-10T15:03:13.763Z,1.47
2018-12-10T15:05:43.079Z,2.17
2018-12-10T15:08:12.673Z,2.47
2018-12-10T15:10:42.120Z,2.03
2018-12-10T15:13:11.390Z,1.70
2018-12-10T15:15:41.388Z,1.83
2018-12-10T15:18:10.939Z,1.80
2018-12-10T15:20:41.067Z,1.77
2018-12-10T15:23:10.589Z,1.30
2018-12-10T15:25:40.185Z,1.40
2018-12-10T15:28:09.643Z,1.10
2018-12-10T15:30:40.129Z,1.50
2018-12-10T15:33:12.176Z,1.80
2018-12-10T15:35:41.790Z,1.83
2018-12-10T15:38:12.363Z,1.43
2018-12-10T15:40:41.696Z,1.63
2018-12-10T15:43:11.030Z,1.70
2018-12-10T15:45:40.537Z,2.03
2018-12-10T15:48:10.089Z,2.63
2018-12-10T15:50:39.899Z,2.13
2018-12-10T15:53:09.730Z,1.97
2018-12-10T15:55:39.205Z,1.70
2018-12-10T15:58:10.420Z,1.53
2018-12-10T16:00:41.354Z,1.57
2018-12-10T16:03:10.864Z,1.80
2018-12-10T16:05:40.519Z,1.73
2018-12-10T16:08:10.182Z,1.57
2018-12-10T16:10:39.727Z,1.60
2018-12-10T16:13:10.016Z,3.03
2018-12-10T16:15:39.391Z,1.90
2018-12-10T16:18:08.887Z,2.10
2018-12-10T16:20:39.900Z,2.10
2018-12-10T16:23:15.814Z,1.80
2018-12-10T16:25:45.154Z,2.47
2018-12-10T16:28:14.417Z,2.00
2018-12-10T16:30:44.230Z,2.03
2018-12-10T16:33:13.701Z,1.93
2018-12-10T16:35:43.856Z,1.90
2018-12-10T16:38:13.168Z,7.60
2018-12-10T16:40:42.664Z,1.90
2018-12-10T16:43:12.064Z,2.00
2018-12-10T16:45:42.057Z,2.77
2018-12-10T16:48:11.265Z,1.73
2018-12-10T16:50:41.431Z,2.10
2018-12-10T16:53:11.078Z,1.70
2018-12-10T16:55:41.465Z,2.10
2018-12-10T16:58:10.859Z,2.10
2018-12-10T17:00:40.270Z,1.90
2018-12-10T17:03:09.461Z,2.53
2018-12-10T17:05:39.358Z,2.43
2018-12-10T17:08:08.645Z,2.20
2018-12-10T17:10:38.598Z,2.13
2018-12-10T17:13:07.886Z,2.17
2018-12-10T17:15:37.223Z,2.13
2018-12-10T17:18:06.725Z,2.03
2018-12-10T17:20:35.958Z,2.03
2018-12-10T17:23:05.176Z,2.07
2018-12-10T17:25:35.246Z,1.87
2018-12-10T17:28:05.148Z,2.17
2018-12-10T17:30:34.985Z,2.63
2018-12-10T17:33:04.894Z,1.83
2018-12-10T17:35:35.623Z,2.20
2018-12-10T17:38:06.250Z,1.67
2018-12-10T17:40:37.945Z,1.90
2018-12-10T17:43:07.894Z,1.70
2018-12-10T17:45:38.697Z,2.53
2018-12-10T17:48:08.777Z,2.00
2018-12-10T17:50:39.134Z,1.80
2018-12-10T17:53:09.883Z,2.27
2018-12-10T17:55:40.173Z,1.87
2018-12-10T17:58:09.947Z,2.00
2018-12-10T18:00:39.865Z,2.13
2018-12-10T18:03:09.165Z,2.97
2018-12-10T18:05:38.484Z,2.10
2018-12-10T18:08:07.914Z,3.00
2018-12-10T18:10:37.393Z,2.37
2018-12-10T18:13:06.738Z,2.83
2018-12-10T18:15:36.052Z,2.63
2018-12-10T18:18:05.421Z,2.67
2018-12-10T18:20:34.751Z,2.23
2018-12-10T18:23:05.171Z,2.20
2018-12-10T18:25:34.523Z,2.57
2018-12-10T18:28:04.007Z,3.10
2018-12-10T18:30:34.998Z,1.80
2018-12-10T18:33:04.326Z,2.03
2018-12-10T18:35:34.250Z,2.07
2018-12-10T18:38:03.537Z,2.20
2018-12-10T18:40:33.880Z,4.13
2018-12-10T18:43:03.236Z,2.27
2018-12-10T18:45:32.704Z,1.93
2018-12-10T18:48:02.019Z,2.03
2018-12-10T18:50:31.227Z,1.90
2018-12-10T18:53:01.971Z,1.97
2018-12-10T18:55:31.496Z,1.90
2018-12-10T18:58:01.245Z,2.30
2018-12-10T19:00:30.723Z,2.30
2018-12-10T19:03:00.329Z,2.63
2018-12-10T19:05:30.185Z,4.13
2018-12-10T19:07:59.537Z,2.30
2018-12-10T19:10:35.633Z,2.30
2018-12-10T19:13:05.014Z,2.47
2018-12-10T19:15:35.151Z,3.30
2018-12-10T19:18:04.697Z,2.47
2018-12-10T19:20:34.021Z,3.10
2018-12-10T19:23:05.576Z,2.60
2018-12-10T19:25:35.075Z,2.30
2018-12-10T19:28:04.431Z,2.90
2018-12-10T19:30:33.716Z,2.80
2018-12-10T19:33:03.020Z,2.80
2018-12-10T19:35:33.403Z,2.60
2018-12-10T19:38:02.760Z,3.20
2018-12-10T19:40:32.100Z,3.17
2018-12-10T19:43:01.381Z,2.90
2018-12-10T19:45:30.805Z,2.63
2018-12-10T19:48:00.358Z,4.03
2018-12-10T19:50:30.375Z,2.70
2018-12-10T19:52:59.820Z,2.27
2018-12-10T19:55:29.358Z,2.23
2018-12-10T19:57:58.670Z,2.40
2018-12-10T20:00:28.189Z,2.47
2018-12-10T20:02:57.436Z,2.00
2018-12-10T20:05:32.258Z,2.37
2018-12-10T20:08:01.676Z,2.40
2018-12-10T20:10:31.469Z,2.70
2018-12-10T20:13:00.834Z,2.27
2018-12-10T20:15:30.140Z,2.20
2018-12-10T20:17:59.526Z,3.17
2018-12-10T20:20:28.935Z,2.83
2018-12-10T20:22:58.686Z,2.67
2018-12-10T20:25:28.051Z,3.10
2018-12-10T20:27:57.892Z,2.20
2018-12-10T20:30:27.288Z,2.80
2018-12-10T20:32:56.615Z,3.77
2018-12-10T20:35:27.246Z,2.73
2018-12-10T20:37:56.657Z,2.33
2018-12-10T20:40:26.047Z,2.50
2018-12-10T20:42:55.343Z,3.47
2018-12-10T20:45:24.591Z,4.43
2018-12-10T20:47:54.039Z,3.03
2018-12-10T20:50:24.525Z,2.70
2018-12-10T20:52:54.029Z,2.90
2018-12-10T20:55:23.769Z,3.03
2018-12-10T20:57:53.323Z,3.17
2018-12-10T21:00:23.320Z,2.73
2018-12-10T21:02:52.668Z,3.10
2018-12-10T21:05:24.305Z,2.50
2018-12-10T21:07:53.513Z,2.77
2018-12-10T21:10:22.946Z,3.27
2018-12-10T21:12:52.233Z,3.07
2018-12-10T21:15:21.516Z,3.03
2018-12-10T21:17:51.695Z,2.83
2018-12-10T21:20:20.998Z,3.00
2018-12-10T21:22:50.434Z,3.30
2018-12-10T21:25:19.626Z,2.93
2018-12-10T21:27:48.883Z,2.83
2018-12-10T21:30:18.437Z,3.10
2018-12-10T21:32:47.697Z,3.10
2018-12-10T21:35:17.949Z,2.97
2018-12-10T21:37:47.129Z,2.97
2018-12-10T21:40:16.333Z,3.30
2018-12-10T21:42:45.610Z,2.77
2018-12-10T21:45:14.983Z,2.67
2018-12-10T21:47:44.262Z,3.10
2018-12-10T21:50:15.668Z,3.20
2018-12-10T21:52:45.130Z,3.10
2018-12-10T21:55:17.037Z,2.70
2018-12-10T21:57:46.192Z,3.10
2018-12-10T22:00:15.989Z,2.77
2018-12-10T22:02:46.329Z,2.53
2018-12-10T22:05:15.734Z,3.13
2018-12-10T22:07:45.252Z,3.10
2018-12-10T22:10:15.590Z,2.97
2018-12-10T22:12:44.944Z,2.97
2018-12-10T22:15:14.466Z,2.90
2018-12-10T22:17:43.723Z,2.93
2018-12-10T22:20:13.185Z,2.80
2018-12-10T22:22:42.680Z,2.83
2018-12-10T22:25:12.161Z,2.83
2018-12-10T22:27:41.885Z,3.27
2018-12-10T22:30:11.980Z,2.53
2018-12-10T22:32:41.926Z,2.80
2018-12-10T22:35:11.634Z,2.50
2018-12-10T22:37:41.337Z,3.53
2018-12-10T22:40:11.350Z,2.67
2018-12-10T22:42:41.012Z,2.67
2018-12-10T22:45:12.220Z,3.70
2018-12-10T22:47:41.744Z,2.90
2018-12-10T22:50:11.321Z,3.30
2018-12-10T22:52:40.942Z,3.37
2018-12-10T22:55:11.401Z,2.70
2018-12-10T22:57:40.922Z,2.77
2018-12-10T23:00:11.280Z,3.13
2018-12-10T23:02:41.100Z,3.07
2018-12-10T23:05:12.815Z,2.97
2018-12-10T23:07:42.554Z,2.90
2018-12-10T23:10:12.199Z,3.30
2018-12-10T23:12:41.722Z,2.70
2018-12-10T23:15:11.432Z,2.93
2018-12-10T23:17:41.064Z,3.17
2018-12-10T23:20:10.820Z,2.90
2018-12-10T23:22:40.520Z,2.87
2018-12-10T23:25:10.330Z,2.90
2018-12-10T23:27:39.635Z,3.33
2018-12-10T23:30:15.739Z,3.47
2018-12-10T23:32:45.498Z,3.00
2018-12-10T23:35:15.217Z,3.00
2018-12-10T23:37:44.901Z,2.97
2018-12-10T23:40:14.466Z,2.73
2018-12-10T23:42:50.015Z,3.07
2018-12-10T23:45:22.585Z,3.20
2018-12-10T23:47:53.145Z,2.80
2018-12-10T23:50:25.451Z,3.07
2018-12-10T23:52:56.146Z,2.70
2018-12-10T23:55:32.341Z,3.37
2018-12-10T23:58:04.091Z,2.67
